Date,TemperatureHighF,TemperatureAvgF,TemperatureLowF,DewpointHighF,DewpointAvgF,DewpointLowF,HumidityHigh,HumidityAvg,HumidityLow,PressureMaxIn,PressureMinIn,WindSpeedMaxMPH,WindSpeedAvgMPH,GustSpeedMaxMPH,PrecipitationSumIn
2012-11-7,38,38,38,-100,-100,-100,0,0,100,0.00,40.00,0,-999,0,0.00
2012-11-8,38,38,38,-100,-100,-100,0,0,100,0.00,40.00,0,-999,0,0.00
2012-11-9,42,39,38,-100,-100,-100,0,0,100,0.00,40.00,0,-999,0,0.00
2012-11-10,75,45,29,-100,-100,-100,0,0,100,0.00,40.00,0,-999,0,0.00
2012-11-11,39,26,19,-100,-100,-100,0,0,100,0.00,40.00,0,-999,0,0.00
2012-11-12,44,30,17,-100,-100,-100,0,0,100,0.00,40.00,0,-999,0,0.00
2012-11-13,51,36,21,-100,-100,-100,0,0,100,0.00,40.00,0,-999,0,0.00
2012-11-14,54,39,25,-100,-100,-100,0,0,100,0.00,40.00,0,-999,0,0.00
2012-11-15,54,42,32,-100,-100,-100,0,0,100,0.00,40.00,0,-999,0,0.00
2012-11-16,32,28,25,-100,-100,-100,0,0,100,0.00,40.00,0,-999,0,0.00
2012-11-17,61,52,43,-100,-100,-100,0,0,100,0.00,40.00,0,-999,0,0.00
2012-11-18,54,43,37,-100,-100,-100,0,0,100,0.00,40.00,0,-999,0,0.00
2012-11-19,65,45,33,-100,-100,-100,0,0,100,0.00,40.00,0,-999,0,0.00
2012-11-20,65,45,29,-100,-100,-100,0,0,100,0.00,40.00,0,-999,0,0.00
2012-11-21,70,53,38,-100,-100,-100,0,0,100,0.00,40.00,0,-999,0,0.00
2012-11-22,58,46,37,-100,-100,-100,0,0,100,0.00,40.00,0,-999,0,0.00
2012-11-23,36,28,20,-100,-100,-100,0,0,100,0.00,40.00,0,-999,0,0.00
2012-11-24,48,34,21,-100,-100,-100,0,0,100,0.00,40.00,0,-999,0,0.00
2012-11-25,42,34,29,-100,-100,-100,0,0,100,0.00,40.00,0,-999,0,0.00
2012-11-26,34,30,18,-100,-100,-100,0,0,100,0.00,40.00,0,-999,0,0.00
2012-11-27,43,26,14,-100,-100,-100,0,0,100,0.00,40.00,0,-999,0,0.00
2012-11-28,47,32,15,-100,-100,-100,0,0,100,0.00,40.00,0,-999,0,0.00
2012-11-29,59,38,22,-100,-100,-100,0,0,100,0.00,40.00,0,-999,0,0.00
2012-11-30,45,35,25,-100,-100,-100,0,0,100,0.00,40.00,0,-999,0,0.00
2012-12-1,58,44,33,-100,-100,-100,0,0,100,0.00,40.00,0,-999,0,0.00
2012-12-2,68,47,29,-100,-100,-100,0,0,100,0.00,40.00,0,-999,0,0.00
2012-12-3,57,44,28,-100,-100,-100,0,0,100,0.00,40.00,0,-999,0,0.00
2012-12-4,60,39,24,-100,-100,-100,0,0,100,0.00,40.00,0,-999,0,0.00
2012-12-5,57,44,32,-100,-100,-100,0,0,100,0.00,40.00,0,-999,0,0.00
2012-12-6,50,45,37,-100,-100,-100,0,0,100,0.00,40.00,0,-999,0,0.00
2012-12-7,43,34,22,-100,-100,-100,0,0,100,0.00,40.00,0,-999,0,0.00
2012-12-8,32,28,21,-100,-100,-100,0,0,100,0.00,40.00,0,-999,0,0.00
2012-12-9,36,23,15,-100,-100,-100,0,0,100,0.00,40.00,0,-999,0,0.00
2012-12-10,34,26,15,-100,-100,-100,0,0,100,0.00,40.00,0,-999,0,0.00
2012-12-11,41,28,17,-100,-100,-100,0,0,100,0.00,40.00,0,-999,0,0.00
2012-12-12,51,37,26,-100,-100,-100,0,0,100,0.00,40.00,0,-999,0,0.00
2012-12-13,52,37,25,-100,-100,-100,0,0,100,0.00,40.00,0,-999,0,0.00
2012-12-14,50,33,15,-100,-100,-100,0,0,100,0.00,40.00,0,-999,0,0.00
2012-12-15,42,38,31,-100,-100,-100,0,0,100,0.00,40.00,0,-999,0,0.00
2012-12-16,36,29,26,-100,-100,-100,0,0,100,0.00,40.00,0,-999,0,0.00
2012-12-17,36,29,24,-100,-100,-100,0,0,100,0.00,40.00,0,-999,0,0.00
2012-12-18,50,37,25,-100,-100,-100,0,0,100,0.00,40.00,0,-999,0,0.00
2012-12-19,32,29,22,-100,-100,-100,0,0,100,0.00,40.00,0,-999,0,0.00
2012-12-20,31,19,13,-100,-100,-100,0,0,100,0.00,40.00,0,-999,0,0.00
2012-12-21,26,16,4,-100,-100,-100,0,0,100,0.00,40.00,0,-999,0,0.00
2012-12-22,33,22,11,-100,-100,-100,0,0,100,0.00,40.00,0,-999,0,0.00
2012-12-23,24,13,8,-100,-100,-100,0,0,100,0.00,40.00,0,-999,0,0.00
2012-12-24,18,11,3,-100,-100,-100,0,0,100,0.00,40.00,0,-999,0,0.00
2012-12-25,18,10,3,-100,-100,-100,0,0,100,0.00,40.00,0,-999,0,0.00
2012-12-26,22,7,1,-100,-100,-100,0,0,100,0.00,40.00,0,-999,0,0.00
2012-12-27,23,16,10,-100,-100,-100,0,0,100,0.00,40.00,0,-999,0,0.00
2012-12-28,23,15,-2,-100,-100,-100,0,0,100,0.00,40.00,0,-999,0,0.00
2012-12-29,30,13,-3,-100,-100,-100,0,0,100,0.00,40.00,0,-999,0,0.00
2012-12-30,31,23,11,-100,-100,-100,0,0,100,0.00,40.00,0,-999,0,0.00
2012-12-31,23,18,10,-100,-100,-100,0,0,100,0.00,40.00,0,-999,0,0.00
2013-1-1,23,16,5,-100,-100,-100,0,0,100,0.00,40.00,0,-999,0,0.00